sensor_id;sensor_type;location;lat;lon;timestamp;P1;durP1;ratioP1;P2;durP2;ratioP2
80494;SDS011;69819;48.798;11.770;2023-09-18T00:00:01;3.67;;;3.22;;
80494;SDS011;69819;48.798;11.770;2023-09-18T00:02:37;2.95;;;2.75;;
80494;SDS011;69819;48.798;11.770;2023-09-18T00:05:04;3.00;;;2.80;;
80494;SDS011;69819;48.798;11.770;2023-09-18T00:07:30;3.33;;;3.10;;
80494;SDS011;69819;48.798;11.770;2023-09-18T00:09:56;3.38;;;3.08;;
80494;SDS011;69819;48.798;11.770;2023-09-18T00:12:22;2.97;;;2.78;;
80494;SDS011;69819;48.798;11.770;2023-09-18T00:14:48;3.20;;;2.97;;
80494;SDS011;69819;48.798;11.770;2023-09-18T00:17:15;3.17;;;2.88;;
80494;SDS011;69819;48.798;11.770;2023-09-18T00:19:42;3.00;;;2.70;;
80494;SDS011;69819;48.798;11.770;2023-09-18T00:22:08;3.83;;;3.00;;
80494;SDS011;69819;48.798;11.770;2023-09-18T00:24:34;3.05;;;2.85;;
80494;SDS011;69819;48.798;11.770;2023-09-18T00:27:00;3.28;;;3.00;;
80494;SDS011;69819;48.798;11.770;2023-09-18T00:29:26;2.92;;;2.67;;
80494;SDS011;69819;48.798;11.770;2023-09-18T00:31:51;3.65;;;2.80;;
80494;SDS011;69819;48.798;11.770;2023-09-18T00:34:17;4.65;;;3.20;;
80494;SDS011;69819;48.798;11.770;2023-09-18T00:36:43;3.17;;;2.95;;
80494;SDS011;69819;48.798;11.770;2023-09-18T00:39:09;3.65;;;2.92;;
80494;SDS011;69819;48.798;11.770;2023-09-18T00:41:35;3.00;;;2.80;;
80494;SDS011;69819;48.798;11.770;2023-09-18T00:44:02;3.20;;;2.92;;
80494;SDS011;69819;48.798;11.770;2023-09-18T00:46:28;3.35;;;2.60;;
80494;SDS011;69819;48.798;11.770;2023-09-18T00:48:54;3.50;;;3.20;;
80494;SDS011;69819;48.798;11.770;2023-09-18T00:51:20;3.35;;;3.05;;
80494;SDS011;69819;48.798;11.770;2023-09-18T00:53:46;3.95;;;3.00;;
80494;SDS011;69819;48.798;11.770;2023-09-18T00:56:13;3.03;;;2.83;;
80494;SDS011;69819;48.798;11.770;2023-09-18T00:58:41;3.03;;;2.78;;
80494;SDS011;69819;48.798;11.770;2023-09-18T01:01:07;3.63;;;3.33;;
80494;SDS011;69819;48.798;11.770;2023-09-18T01:03:36;3.38;;;3.08;;
80494;SDS011;69819;48.798;11.770;2023-09-18T01:06:02;2.83;;;2.63;;
80494;SDS011;69819;48.798;11.770;2023-09-18T01:08:28;2.90;;;2.70;;
80494;SDS011;69819;48.798;11.770;2023-09-18T01:10:56;3.58;;;3.25;;
80494;SDS011;69819;48.798;11.770;2023-09-18T01:13:45;2.97;;;2.78;;
80494;SDS011;69819;48.798;11.770;2023-09-18T01:16:51;2.88;;;2.67;;
80494;SDS011;69819;48.798;11.770;2023-09-18T01:19:38;2.45;;;2.25;;
80494;SDS011;69819;48.798;11.770;2023-09-18T01:22:07;2.55;;;2.35;;
80494;SDS011;69819;48.798;11.770;2023-09-18T01:24:35;3.05;;;2.53;;
80494;SDS011;69819;48.798;11.770;2023-09-18T01:27:03;3.25;;;3.00;;
80494;SDS011;69819;48.798;11.770;2023-09-18T01:29:32;3.42;;;3.00;;
80494;SDS011;69819;48.798;11.770;2023-09-18T01:31:58;3.30;;;3.00;;
80494;SDS011;69819;48.798;11.770;2023-09-18T01:34:28;3.20;;;2.90;;
80494;SDS011;69819;48.798;11.770;2023-09-18T01:37:02;3.63;;;2.95;;
80494;SDS011;69819;48.798;11.770;2023-09-18T01:39:31;3.08;;;2.88;;
80494;SDS011;69819;48.798;11.770;2023-09-18T01:41:59;3.22;;;3.03;;
80494;SDS011;69819;48.798;11.770;2023-09-18T01:44:34;2.75;;;2.55;;
80494;SDS011;69819;48.798;11.770;2023-09-18T01:47:04;3.42;;;3.13;;
80494;SDS011;69819;48.798;11.770;2023-09-18T01:49:36;3.50;;;3.20;;
80494;SDS011;69819;48.798;11.770;2023-09-18T01:52:05;3.35;;;3.05;;
80494;SDS011;69819;48.798;11.770;2023-09-18T01:54:33;3.25;;;2.95;;
80494;SDS011;69819;48.798;11.770;2023-09-18T01:59:31;3.65;;;2.80;;
80494;SDS011;69819;48.798;11.770;2023-09-18T02:01:58;3.55;;;3.25;;
80494;SDS011;69819;48.798;11.770;2023-09-18T02:04:24;2.88;;;2.67;;
80494;SDS011;69819;48.798;11.770;2023-09-18T02:06:52;3.25;;;2.97;;
80494;SDS011;69819;48.798;11.770;2023-09-18T02:09:18;3.30;;;2.88;;
80494;SDS011;69819;48.798;11.770;2023-09-18T02:11:46;2.95;;;2.75;;
80494;SDS011;69819;48.798;11.770;2023-09-18T02:14:13;3.40;;;3.10;;
80494;SDS011;69819;48.798;11.770;2023-09-18T02:16:40;3.35;;;3.05;;
80494;SDS011;69819;48.798;11.770;2023-09-18T02:19:11;3.45;;;2.97;;
80494;SDS011;69819;48.798;11.770;2023-09-18T02:21:39;3.28;;;3.00;;
80494;SDS011;69819;48.798;11.770;2023-09-18T02:24:06;3.08;;;2.88;;
80494;SDS011;69819;48.798;11.770;2023-09-18T02:26:32;3.53;;;2.92;;
80494;SDS011;69819;48.798;11.770;2023-09-18T02:28:59;3.15;;;2.92;;
80494;SDS011;69819;48.798;11.770;2023-09-18T02:31:36;3.22;;;3.00;;
80494;SDS011;69819;48.798;11.770;2023-09-18T02:34:02;3.58;;;3.28;;
80494;SDS011;69819;48.798;11.770;2023-09-18T02:36:28;2.95;;;2.75;;
80494;SDS011;69819;48.798;11.770;2023-09-18T02:38:53;3.20;;;2.92;;
80494;SDS011;69819;48.798;11.770;2023-09-18T02:41:20;3.40;;;3.08;;
80494;SDS011;69819;48.798;11.770;2023-09-18T02:43:45;3.50;;;3.20;;
80494;SDS011;69819;48.798;11.770;2023-09-18T02:46:11;3.45;;;3.15;;
80494;SDS011;69819;48.798;11.770;2023-09-18T02:48:37;3.15;;;2.95;;
80494;SDS011;69819;48.798;11.770;2023-09-18T02:51:03;3.53;;;3.22;;
80494;SDS011;69819;48.798;11.770;2023-09-18T02:53:30;3.30;;;3.00;;
80494;SDS011;69819;48.798;11.770;2023-09-18T02:55:56;3.60;;;3.30;;
80494;SDS011;69819;48.798;11.770;2023-09-18T02:58:24;3.38;;;3.08;;
80494;SDS011;69819;48.798;11.770;2023-09-18T03:00:51;3.20;;;2.90;;
80494;SDS011;69819;48.798;11.770;2023-09-18T03:03:19;3.10;;;2.90;;
80494;SDS011;69819;48.798;11.770;2023-09-18T03:05:45;3.92;;;3.00;;
80494;SDS011;69819;48.798;11.770;2023-09-18T03:08:11;4.47;;;3.65;;
80494;SDS011;69819;48.798;11.770;2023-09-18T03:10:41;3.38;;;3.00;;
80494;SDS011;69819;48.798;11.770;2023-09-18T03:13:08;3.17;;;2.88;;
80494;SDS011;69819;48.798;11.770;2023-09-18T03:15:36;3.45;;;3.15;;
80494;SDS011;69819;48.798;11.770;2023-09-18T03:18:02;3.38;;;3.08;;
80494;SDS011;69819;48.798;11.770;2023-09-18T03:20:30;3.75;;;3.40;;
80494;SDS011;69819;48.798;11.770;2023-09-18T03:22:58;3.88;;;3.20;;
80494;SDS011;69819;48.798;11.770;2023-09-18T03:25:25;3.47;;;3.08;;
80494;SDS011;69819;48.798;11.770;2023-09-18T03:27:53;4.18;;;3.08;;
80494;SDS011;69819;48.798;11.770;2023-09-18T03:30:23;3.13;;;2.90;;
80494;SDS011;69819;48.798;11.770;2023-09-18T03:32:50;3.67;;;3.17;;
80494;SDS011;69819;48.798;11.770;2023-09-18T03:35:17;3.60;;;3.30;;
80494;SDS011;69819;48.798;11.770;2023-09-18T03:37:47;3.95;;;3.33;;
80494;SDS011;69819;48.798;11.770;2023-09-18T03:40:17;3.40;;;3.10;;
80494;SDS011;69819;48.798;11.770;2023-09-18T03:42:44;3.67;;;3.30;;
80494;SDS011;69819;48.798;11.770;2023-09-18T03:45:10;3.92;;;3.38;;
80494;SDS011;69819;48.798;11.770;2023-09-18T03:47:37;3.88;;;3.53;;
80494;SDS011;69819;48.798;11.770;2023-09-18T03:50:06;3.60;;;3.30;;
80494;SDS011;69819;48.798;11.770;2023-09-18T03:52:33;3.85;;;3.55;;
80494;SDS011;69819;48.798;11.770;2023-09-18T03:54:59;3.47;;;3.17;;
80494;SDS011;69819;48.798;11.770;2023-09-18T03:57:25;3.65;;;3.35;;
80494;SDS011;69819;48.798;11.770;2023-09-18T03:59:51;3.22;;;3.03;;
80494;SDS011;69819;48.798;11.770;2023-09-18T04:02:17;3.58;;;3.25;;
80494;SDS011;69819;48.798;11.770;2023-09-18T04:04:42;3.53;;;3.22;;
80494;SDS011;69819;48.798;11.770;2023-09-18T04:07:08;3.70;;;3.33;;
80494;SDS011;69819;48.798;11.770;2023-09-18T04:09:35;3.83;;;3.38;;
80494;SDS011;69819;48.798;11.770;2023-09-18T04:12:01;3.45;;;3.15;;
80494;SDS011;69819;48.798;11.770;2023-09-18T04:14:30;3.28;;;3.00;;
80494;SDS011;69819;48.798;11.770;2023-09-18T04:16:56;4.25;;;3.67;;
80494;SDS011;69819;48.798;11.770;2023-09-18T04:19:21;3.70;;;3.40;;
80494;SDS011;69819;48.798;11.770;2023-09-18T04:21:47;3.72;;;3.42;;
80494;SDS011;69819;48.798;11.770;2023-09-18T04:24:13;6.07;;;3.50;;
80494;SDS011;69819;48.798;11.770;2023-09-18T04:26:39;3.80;;;3.50;;
80494;SDS011;69819;48.798;11.770;2023-09-18T04:29:05;3.47;;;3.17;;
80494;SDS011;69819;48.798;11.770;2023-09-18T04:31:31;3.70;;;3.40;;
80494;SDS011;69819;48.798;11.770;2023-09-18T04:33:57;4.00;;;3.47;;
80494;SDS011;69819;48.798;11.770;2023-09-18T04:36:23;3.78;;;3.47;;
80494;SDS011;69819;48.798;11.770;2023-09-18T04:38:49;3.65;;;3.35;;
80494;SDS011;69819;48.798;11.770;2023-09-18T04:41:16;5.25;;;4.03;;
80494;SDS011;69819;48.798;11.770;2023-09-18T04:43:41;4.00;;;3.60;;
80494;SDS011;69819;48.798;11.770;2023-09-18T04:46:11;6.18;;;4.05;;
80494;SDS011;69819;48.798;11.770;2023-09-18T04:48:38;4.40;;;4.00;;
80494;SDS011;69819;48.798;11.770;2023-09-18T04:51:03;4.00;;;3.65;;
80494;SDS011;69819;48.798;11.770;2023-09-18T04:53:30;3.90;;;3.60;;
80494;SDS011;69819;48.798;11.770;2023-09-18T04:55:57;4.13;;;3.40;;
80494;SDS011;69819;48.798;11.770;2023-09-18T04:58:23;4.35;;;3.95;;
80494;SDS011;69819;48.798;11.770;2023-09-18T05:00:55;3.85;;;3.55;;
80494;SDS011;69819;48.798;11.770;2023-09-18T05:03:23;4.15;;;3.75;;
80494;SDS011;69819;48.798;11.770;2023-09-18T05:05:50;3.90;;;3.60;;
80494;SDS011;69819;48.798;11.770;2023-09-18T05:08:16;4.00;;;3.70;;
80494;SDS011;69819;48.798;11.770;2023-09-18T05:10:42;4.15;;;3.75;;
80494;SDS011;69819;48.798;11.770;2023-09-18T05:13:08;4.10;;;3.70;;
80494;SDS011;69819;48.798;11.770;2023-09-18T05:15:36;4.38;;;3.70;;
80494;SDS011;69819;48.798;11.770;2023-09-18T05:18:02;4.40;;;4.00;;
80494;SDS011;69819;48.798;11.770;2023-09-18T05:20:28;4.43;;;4.03;;
80494;SDS011;69819;48.798;11.770;2023-09-18T05:22:56;4.68;;;4.00;;
80494;SDS011;69819;48.798;11.770;2023-09-18T05:25:24;4.22;;;3.88;;
80494;SDS011;69819;48.798;11.770;2023-09-18T05:27:52;4.88;;;3.65;;
80494;SDS011;69819;48.798;11.770;2023-09-18T05:30:24;3.92;;;3.58;;
80494;SDS011;69819;48.798;11.770;2023-09-18T05:32:58;3.97;;;3.65;;
80494;SDS011;69819;48.798;11.770;2023-09-18T05:35:30;4.40;;;4.00;;
80494;SDS011;69819;48.798;11.770;2023-09-18T05:37:56;3.88;;;3.58;;
80494;SDS011;69819;48.798;11.770;2023-09-18T05:40:23;4.07;;;3.67;;
80494;SDS011;69819;48.798;11.770;2023-09-18T05:42:53;4.40;;;3.40;;
80494;SDS011;69819;48.798;11.770;2023-09-18T05:45:20;4.20;;;3.80;;
80494;SDS011;69819;48.798;11.770;2023-09-18T05:47:47;4.57;;;3.47;;
80494;SDS011;69819;48.798;11.770;2023-09-18T05:50:14;3.88;;;3.58;;
80494;SDS011;69819;48.798;11.770;2023-09-18T05:52:42;4.28;;;3.80;;
80494;SDS011;69819;48.798;11.770;2023-09-18T05:55:10;3.58;;;3.28;;
80494;SDS011;69819;48.798;11.770;2023-09-18T05:57:36;3.85;;;3.55;;
80494;SDS011;69819;48.798;11.770;2023-09-18T06:00:02;3.97;;;3.67;;
80494;SDS011;69819;48.798;11.770;2023-09-18T06:02:30;4.10;;;3.80;;
80494;SDS011;69819;48.798;11.770;2023-09-18T06:04:56;3.70;;;3.40;;
80494;SDS011;69819;48.798;11.770;2023-09-18T06:07:26;3.75;;;3.45;;
80494;SDS011;69819;48.798;11.770;2023-09-18T06:09:52;3.70;;;3.40;;
80494;SDS011;69819;48.798;11.770;2023-09-18T06:12:19;4.55;;;3.60;;
80494;SDS011;69819;48.798;11.770;2023-09-18T06:14:46;4.10;;;3.65;;
80494;SDS011;69819;48.798;11.770;2023-09-18T06:17:13;3.95;;;3.65;;
80494;SDS011;69819;48.798;11.770;2023-09-18T06:19:43;3.65;;;3.35;;
80494;SDS011;69819;48.798;11.770;2023-09-18T06:22:11;4.47;;;3.35;;
80494;SDS011;69819;48.798;11.770;2023-09-18T06:24:38;3.95;;;3.65;;
80494;SDS011;69819;48.798;11.770;2023-09-18T06:27:04;4.13;;;3.58;;
80494;SDS011;69819;48.798;11.770;2023-09-18T06:29:30;3.80;;;3.50;;
80494;SDS011;69819;48.798;11.770;2023-09-18T06:31:57;3.90;;;3.47;;
80494;SDS011;69819;48.798;11.770;2023-09-18T06:34:23;4.18;;;3.88;;
80494;SDS011;69819;48.798;11.770;2023-09-18T06:36:50;4.93;;;3.78;;
80494;SDS011;69819;48.798;11.770;2023-09-18T06:39:15;3.83;;;3.53;;
80494;SDS011;69819;48.798;11.770;2023-09-18T06:41:42;3.78;;;3.47;;
80494;SDS011;69819;48.798;11.770;2023-09-18T06:44:07;3.20;;;2.90;;
80494;SDS011;69819;48.798;11.770;2023-09-18T06:46:34;3.25;;;2.97;;
80494;SDS011;69819;48.798;11.770;2023-09-18T06:49:00;3.28;;;3.08;;
80494;SDS011;69819;48.798;11.770;2023-09-18T06:51:26;3.20;;;3.00;;
80494;SDS011;69819;48.798;11.770;2023-09-18T06:53:55;3.50;;;3.20;;
80494;SDS011;69819;48.798;11.770;2023-09-18T06:56:22;3.72;;;3.42;;
80494;SDS011;69819;48.798;11.770;2023-09-18T06:58:49;4.05;;;3.67;;
80494;SDS011;69819;48.798;11.770;2023-09-18T07:01:17;3.97;;;3.67;;
80494;SDS011;69819;48.798;11.770;2023-09-18T07:03:44;4.90;;;3.95;;
80494;SDS011;69819;48.798;11.770;2023-09-18T07:06:12;4.10;;;3.70;;
80494;SDS011;69819;48.798;11.770;2023-09-18T07:08:43;4.45;;;4.05;;
80494;SDS011;69819;48.798;11.770;2023-09-18T07:11:09;5.18;;;3.92;;
80494;SDS011;69819;48.798;11.770;2023-09-18T07:13:36;3.97;;;3.67;;
80494;SDS011;69819;48.798;11.770;2023-09-18T07:16:03;3.95;;;3.65;;
80494;SDS011;69819;48.798;11.770;2023-09-18T07:18:30;4.07;;;3.20;;
80494;SDS011;69819;48.798;11.770;2023-09-18T07:20:56;3.40;;;3.13;;
80494;SDS011;69819;48.798;11.770;2023-09-18T07:23:22;3.53;;;3.30;;
80494;SDS011;69819;48.798;11.770;2023-09-18T07:25:48;2.92;;;2.72;;
80494;SDS011;69819;48.798;11.770;2023-09-18T07:28:14;4.15;;;3.25;;
80494;SDS011;69819;48.798;11.770;2023-09-18T07:30:43;3.17;;;2.92;;
80494;SDS011;69819;48.798;11.770;2023-09-18T07:33:09;4.30;;;3.40;;
80494;SDS011;69819;48.798;11.770;2023-09-18T07:35:36;3.50;;;3.20;;
80494;SDS011;69819;48.798;11.770;2023-09-18T07:38:03;3.42;;;3.13;;
80494;SDS011;69819;48.798;11.770;2023-09-18T07:40:29;3.22;;;3.03;;
80494;SDS011;69819;48.798;11.770;2023-09-18T07:42:55;4.05;;;3.28;;
80494;SDS011;69819;48.798;11.770;2023-09-18T07:45:22;3.22;;;2.90;;
80494;SDS011;69819;48.798;11.770;2023-09-18T07:47:48;3.00;;;2.80;;
80494;SDS011;69819;48.798;11.770;2023-09-18T07:50:14;3.60;;;3.30;;
80494;SDS011;69819;48.798;11.770;2023-09-18T07:52:40;3.10;;;2.90;;
80494;SDS011;69819;48.798;11.770;2023-09-18T07:55:06;3.10;;;2.90;;
80494;SDS011;69819;48.798;11.770;2023-09-18T07:57:33;2.78;;;2.58;;
80494;SDS011;69819;48.798;11.770;2023-09-18T07:59:59;2.88;;;2.67;;
80494;SDS011;69819;48.798;11.770;2023-09-18T08:02:38;2.78;;;2.55;;
80494;SDS011;69819;48.798;11.770;2023-09-18T08:05:05;2.95;;;2.75;;
80494;SDS011;69819;48.798;11.770;2023-09-18T08:07:32;3.20;;;3.00;;
80494;SDS011;69819;48.798;11.770;2023-09-18T08:09:58;3.17;;;2.88;;
80494;SDS011;69819;48.798;11.770;2023-09-18T08:12:24;2.88;;;2.65;;
80494;SDS011;69819;48.798;11.770;2023-09-18T08:14:49;2.88;;;2.67;;
80494;SDS011;69819;48.798;11.770;2023-09-18T08:17:16;3.13;;;2.67;;
80494;SDS011;69819;48.798;11.770;2023-09-18T08:19:41;3.20;;;2.90;;
80494;SDS011;69819;48.798;11.770;2023-09-18T08:22:09;2.83;;;2.63;;
80494;SDS011;69819;48.798;11.770;2023-09-18T08:24:36;4.88;;;2.55;;
80494;SDS011;69819;48.798;11.770;2023-09-18T08:27:02;2.85;;;2.42;;
80494;SDS011;69819;48.798;11.770;2023-09-18T08:29:28;2.83;;;2.63;;
80494;SDS011;69819;48.798;11.770;2023-09-18T08:31:54;2.85;;;2.65;;
80494;SDS011;69819;48.798;11.770;2023-09-18T08:34:20;2.40;;;2.30;;
80494;SDS011;69819;48.798;11.770;2023-09-18T08:36:45;2.88;;;2.67;;
80494;SDS011;69819;48.798;11.770;2023-09-18T08:39:11;2.90;;;2.65;;
80494;SDS011;69819;48.798;11.770;2023-09-18T08:41:42;9.35;;;3.10;;
80494;SDS011;69819;48.798;11.770;2023-09-18T08:44:08;2.17;;;2.08;;
80494;SDS011;69819;48.798;11.770;2023-09-18T08:46:34;2.72;;;2.53;;
80494;SDS011;69819;48.798;11.770;2023-09-18T08:49:02;2.63;;;2.47;;
80494;SDS011;69819;48.798;11.770;2023-09-18T08:51:30;2.83;;;2.60;;
80494;SDS011;69819;48.798;11.770;2023-09-18T08:53:58;2.50;;;2.25;;
80494;SDS011;69819;48.798;11.770;2023-09-18T08:56:25;2.50;;;2.40;;
80494;SDS011;69819;48.798;11.770;2023-09-18T08:58:53;2.72;;;2.53;;
80494;SDS011;69819;48.798;11.770;2023-09-18T09:01:19;4.75;;;2.63;;
80494;SDS011;69819;48.798;11.770;2023-09-18T09:03:46;2.83;;;2.63;;
80494;SDS011;69819;48.798;11.770;2023-09-18T09:06:12;2.80;;;2.60;;
80494;SDS011;69819;48.798;11.770;2023-09-18T09:08:38;2.97;;;2.78;;
80494;SDS011;69819;48.798;11.770;2023-09-18T09:11:04;2.75;;;2.55;;
80494;SDS011;69819;48.798;11.770;2023-09-18T09:13:30;2.80;;;2.65;;
80494;SDS011;69819;48.798;11.770;2023-09-18T09:15:57;3.13;;;2.55;;
80494;SDS011;69819;48.798;11.770;2023-09-18T09:18:28;3.20;;;2.85;;
80494;SDS011;69819;48.798;11.770;2023-09-18T09:21:00;3.00;;;2.80;;
80494;SDS011;69819;48.798;11.770;2023-09-18T09:23:41;2.70;;;2.50;;
80494;SDS011;69819;48.798;11.770;2023-09-18T09:26:18;2.85;;;2.65;;
80494;SDS011;69819;48.798;11.770;2023-09-18T09:28:47;3.20;;;2.72;;
80494;SDS011;69819;48.798;11.770;2023-09-18T09:31:23;3.03;;;2.80;;
80494;SDS011;69819;48.798;11.770;2023-09-18T09:33:52;3.08;;;2.88;;
80494;SDS011;69819;48.798;11.770;2023-09-18T09:36:22;3.00;;;2.80;;
80494;SDS011;69819;48.798;11.770;2023-09-18T09:38:49;3.78;;;2.33;;
80494;SDS011;69819;48.798;11.770;2023-09-18T09:41:22;3.60;;;2.60;;
80494;SDS011;69819;48.798;11.770;2023-09-18T09:43:48;3.10;;;2.58;;
80494;SDS011;69819;48.798;11.770;2023-09-18T09:46:16;3.15;;;2.38;;
80494;SDS011;69819;48.798;11.770;2023-09-18T09:49:04;3.38;;;2.75;;
80494;SDS011;69819;48.798;11.770;2023-09-18T09:51:31;2.90;;;2.40;;
80494;SDS011;69819;48.798;11.770;2023-09-18T09:53:59;2.80;;;2.60;;
80494;SDS011;69819;48.798;11.770;2023-09-18T09:59:16;2.67;;;2.47;;
80494;SDS011;69819;48.798;11.770;2023-09-18T10:01:47;2.88;;;2.67;;
80494;SDS011;69819;48.798;11.770;2023-09-18T10:04:18;2.53;;;2.35;;
80494;SDS011;69819;48.798;11.770;2023-09-18T10:06:47;2.58;;;2.38;;
80494;SDS011;69819;48.798;11.770;2023-09-18T10:09:21;2.85;;;2.50;;
80494;SDS011;69819;48.798;11.770;2023-09-18T10:11:51;3.03;;;2.63;;
80494;SDS011;69819;48.798;11.770;2023-09-18T10:14:21;2.58;;;2.38;;
80494;SDS011;69819;48.798;11.770;2023-09-18T10:16:56;2.92;;;2.17;;
80494;SDS011;69819;48.798;11.770;2023-09-18T10:19:27;3.20;;;2.38;;
80494;SDS011;69819;48.798;11.770;2023-09-18T10:25:20;2.70;;;2.50;;
80494;SDS011;69819;48.798;11.770;2023-09-18T10:27:53;3.15;;;2.40;;
80494;SDS011;69819;48.798;11.770;2023-09-18T10:30:28;3.45;;;2.55;;
80494;SDS011;69819;48.798;11.770;2023-09-18T10:32:57;2.17;;;1.98;;
80494;SDS011;69819;48.798;11.770;2023-09-18T10:35:25;2.50;;;2.30;;
80494;SDS011;69819;48.798;11.770;2023-09-18T10:37:51;3.55;;;2.65;;
80494;SDS011;69819;48.798;11.770;2023-09-18T10:40:20;3.72;;;2.50;;
80494;SDS011;69819;48.798;11.770;2023-09-18T10:42:47;3.25;;;2.30;;
80494;SDS011;69819;48.798;11.770;2023-09-18T10:45:17;3.10;;;2.53;;
80494;SDS011;69819;48.798;11.770;2023-09-18T10:47:44;2.90;;;2.30;;
80494;SDS011;69819;48.798;11.770;2023-09-18T10:50:14;3.15;;;2.38;;
80494;SDS011;69819;48.798;11.770;2023-09-18T10:52:52;3.03;;;2.33;;
80494;SDS011;69819;48.798;11.770;2023-09-18T10:55:18;3.13;;;2.33;;
80494;SDS011;69819;48.798;11.770;2023-09-18T10:57:53;2.50;;;2.30;;
80494;SDS011;69819;48.798;11.770;2023-09-18T11:00:24;2.28;;;2.13;;
80494;SDS011;69819;48.798;11.770;2023-09-18T11:02:52;2.35;;;2.00;;
80494;SDS011;69819;48.798;11.770;2023-09-18T11:05:39;2.65;;;1.73;;
80494;SDS011;69819;48.798;11.770;2023-09-18T11:13:38;1.90;;;1.60;;
80494;SDS011;69819;48.798;11.770;2023-09-18T11:16:16;2.00;;;1.70;;
80494;SDS011;69819;48.798;11.770;2023-09-18T11:21:27;1.38;;;1.25;;
80494;SDS011;69819;48.798;11.770;2023-09-18T11:24:01;1.50;;;1.10;;
80494;SDS011;69819;48.798;11.770;2023-09-18T11:26:41;2.25;;;1.27;;
80494;SDS011;69819;48.798;11.770;2023-09-18T11:29:09;1.58;;;1.20;;
80494;SDS011;69819;48.798;11.770;2023-09-18T11:36:45;2.35;;;1.17;;
80494;SDS011;69819;48.798;11.770;2023-09-18T11:39:11;1.20;;;1.02;;
80494;SDS011;69819;48.798;11.770;2023-09-18T11:41:38;2.20;;;1.50;;
80494;SDS011;69819;48.798;11.770;2023-09-18T11:46:39;2.85;;;1.52;;
80494;SDS011;69819;48.798;11.770;2023-09-18T11:49:11;1.50;;;1.33;;
80494;SDS011;69819;48.798;11.770;2023-09-18T11:51:39;4.05;;;1.67;;
80494;SDS011;69819;48.798;11.770;2023-09-18T11:54:07;2.28;;;1.25;;
80494;SDS011;69819;48.798;11.770;2023-09-18T11:56:34;1.00;;;0.90;;
80494;SDS011;69819;48.798;11.770;2023-09-18T11:59:00;2.47;;;1.00;;
80494;SDS011;69819;48.798;11.770;2023-09-18T12:01:30;3.08;;;1.20;;
80494;SDS011;69819;48.798;11.770;2023-09-18T12:04:03;1.42;;;1.10;;
80494;SDS011;69819;48.798;11.770;2023-09-18T12:06:34;1.10;;;1.00;;
80494;SDS011;69819;48.798;11.770;2023-09-18T12:09:01;3.60;;;1.20;;
80494;SDS011;69819;48.798;11.770;2023-09-18T12:11:29;2.67;;;1.10;;
80494;SDS011;69819;48.798;11.770;2023-09-18T12:13:55;2.65;;;1.23;;
80494;SDS011;69819;48.798;11.770;2023-09-18T12:16:22;1.33;;;0.93;;
80494;SDS011;69819;48.798;11.770;2023-09-18T12:18:49;1.00;;;0.90;;
80494;SDS011;69819;48.798;11.770;2023-09-18T12:21:16;2.03;;;1.00;;
80494;SDS011;69819;48.798;11.770;2023-09-18T12:23:43;1.30;;;1.00;;
80494;SDS011;69819;48.798;11.770;2023-09-18T12:26:14;1.98;;;1.00;;
80494;SDS011;69819;48.798;11.770;2023-09-18T12:28:43;1.00;;;0.90;;
80494;SDS011;69819;48.798;11.770;2023-09-18T12:31:10;3.00;;;1.10;;
80494;SDS011;69819;48.798;11.770;2023-09-18T12:33:37;2.63;;;0.93;;
80494;SDS011;69819;48.798;11.770;2023-09-18T12:36:05;1.95;;;1.10;;
80494;SDS011;69819;48.798;11.770;2023-09-18T12:38:33;2.42;;;1.10;;
80494;SDS011;69819;48.798;11.770;2023-09-18T12:41:02;0.90;;;0.80;;
80494;SDS011;69819;48.798;11.770;2023-09-18T12:43:37;1.27;;;1.05;;
80494;SDS011;69819;48.798;11.770;2023-09-18T12:46:08;1.33;;;0.95;;
80494;SDS011;69819;48.798;11.770;2023-09-18T12:48:38;1.52;;;0.88;;
80494;SDS011;69819;48.798;11.770;2023-09-18T12:51:10;0.85;;;0.68;;
80494;SDS011;69819;48.798;11.770;2023-09-18T12:53:36;2.05;;;0.90;;
80494;SDS011;69819;48.798;11.770;2023-09-18T12:56:09;1.77;;;1.13;;
80494;SDS011;69819;48.798;11.770;2023-09-18T12:58:37;2.45;;;1.50;;
80494;SDS011;69819;48.798;11.770;2023-09-18T13:01:07;1.38;;;0.90;;
80494;SDS011;69819;48.798;11.770;2023-09-18T13:03:43;3.15;;;1.17;;
80494;SDS011;69819;48.798;11.770;2023-09-18T13:06:20;0.90;;;0.75;;
80494;SDS011;69819;48.798;11.770;2023-09-18T13:11:13;1.38;;;0.80;;
80494;SDS011;69819;48.798;11.770;2023-09-18T13:13:56;3.65;;;0.80;;
80494;SDS011;69819;48.798;11.770;2023-09-18T13:16:43;2.08;;;0.70;;
80494;SDS011;69819;48.798;11.770;2023-09-18T13:19:09;1.58;;;0.70;;
80494;SDS011;69819;48.798;11.770;2023-09-18T13:21:36;1.08;;;0.55;;
80494;SDS011;69819;48.798;11.770;2023-09-18T13:24:05;2.88;;;0.63;;
80494;SDS011;69819;48.798;11.770;2023-09-18T13:26:31;0.85;;;0.60;;
80494;SDS011;69819;48.798;11.770;2023-09-18T13:28:57;5.32;;;0.73;;
80494;SDS011;69819;48.798;11.770;2023-09-18T13:31:23;1.65;;;0.70;;
80494;SDS011;69819;48.798;11.770;2023-09-18T13:33:49;0.55;;;0.50;;
80494;SDS011;69819;48.798;11.770;2023-09-18T13:36:14;1.48;;;0.50;;
80494;SDS011;69819;48.798;11.770;2023-09-18T13:38:40;1.15;;;0.43;;
80494;SDS011;69819;48.798;11.770;2023-09-18T13:41:06;1.25;;;0.40;;
80494;SDS011;69819;48.798;11.770;2023-09-18T13:43:32;0.73;;;0.40;;
80494;SDS011;69819;48.798;11.770;2023-09-18T13:45:59;0.73;;;0.30;;
80494;SDS011;69819;48.798;11.770;2023-09-18T13:48:29;0.40;;;0.40;;
80494;SDS011;69819;48.798;11.770;2023-09-18T13:50:55;1.00;;;0.60;;
80494;SDS011;69819;48.798;11.770;2023-09-18T13:53:21;0.70;;;0.60;;
80494;SDS011;69819;48.798;11.770;2023-09-18T13:55:47;1.00;;;0.82;;
80494;SDS011;69819;48.798;11.770;2023-09-18T13:58:13;3.33;;;1.10;;
80494;SDS011;69819;48.798;11.770;2023-09-18T14:00:38;1.85;;;0.57;;
80494;SDS011;69819;48.798;11.770;2023-09-18T14:03:04;0.98;;;0.73;;
80494;SDS011;69819;48.798;11.770;2023-09-18T14:05:30;1.52;;;0.95;;
80494;SDS011;69819;48.798;11.770;2023-09-18T14:07:58;1.45;;;0.50;;
80494;SDS011;69819;48.798;11.770;2023-09-18T14:10:28;0.50;;;0.40;;
80494;SDS011;69819;48.798;11.770;2023-09-18T14:12:53;0.40;;;0.30;;
80494;SDS011;69819;48.798;11.770;2023-09-18T14:15:20;0.45;;;0.25;;
80494;SDS011;69819;48.798;11.770;2023-09-18T14:17:46;0.70;;;0.40;;
80494;SDS011;69819;48.798;11.770;2023-09-18T14:20:11;0.50;;;0.43;;
80494;SDS011;69819;48.798;11.770;2023-09-18T14:22:37;0.77;;;0.40;;
80494;SDS011;69819;48.798;11.770;2023-09-18T14:25:03;1.17;;;0.45;;
80494;SDS011;69819;48.798;11.770;2023-09-18T14:27:34;0.40;;;0.40;;
80494;SDS011;69819;48.798;11.770;2023-09-18T14:30:00;0.75;;;0.30;;
80494;SDS011;69819;48.798;11.770;2023-09-18T14:32:31;1.08;;;0.52;;
80494;SDS011;69819;48.798;11.770;2023-09-18T14:34:58;0.80;;;0.57;;
80494;SDS011;69819;48.798;11.770;2023-09-18T14:37:26;1.85;;;0.70;;
80494;SDS011;69819;48.798;11.770;2023-09-18T14:39:53;0.82;;;0.60;;
80494;SDS011;69819;48.798;11.770;2023-09-18T14:42:18;1.25;;;0.50;;
80494;SDS011;69819;48.798;11.770;2023-09-18T14:44:44;1.13;;;0.50;;
80494;SDS011;69819;48.798;11.770;2023-09-18T14:47:11;1.00;;;0.40;;
80494;SDS011;69819;48.798;11.770;2023-09-18T14:49:37;0.73;;;0.30;;
80494;SDS011;69819;48.798;11.770;2023-09-18T14:52:04;0.80;;;0.43;;
80494;SDS011;69819;48.798;11.770;2023-09-18T14:54:31;0.47;;;0.30;;
80494;SDS011;69819;48.798;11.770;2023-09-18T14:56:56;0.63;;;0.38;;
80494;SDS011;69819;48.798;11.770;2023-09-18T14:59:23;1.23;;;0.40;;
80494;SDS011;69819;48.798;11.770;2023-09-18T15:01:48;1.27;;;0.40;;
80494;SDS011;69819;48.798;11.770;2023-09-18T15:04:14;1.02;;;0.60;;